sensor_id;sensor_type;location;lat;lon;timestamp;pressure;altitude;pressure_sealevel;temperature;humidity
84819;BME280;75053;51.080;13.712;2024-01-25T00:00:29;100757.84;;;10.22;59.41
84819;BME280;75053;51.080;13.712;2024-01-25T00:02:55;100770.41;;;10.16;59.43
84819;BME280;75053;51.080;13.712;2024-01-25T00:05:20;100766.31;;;10.12;59.71
84819;BME280;75053;51.080;13.712;2024-01-25T00:07:49;100758.31;;;10.15;59.72
84819;BME280;75053;51.080;13.712;2024-01-25T00:10:16;100754.38;;;10.08;59.89
84819;BME280;75053;51.080;13.712;2024-01-25T00:12:42;100757.63;;;10.11;59.90
84819;BME280;75053;51.080;13.712;2024-01-25T00:15:09;100765.72;;;10.07;59.91
84819;BME280;75053;51.080;13.712;2024-01-25T00:17:35;100774.13;;;10.12;59.88
84819;BME280;75053;51.080;13.712;2024-01-25T00:20:00;100777.75;;;10.09;59.99
84819;BME280;75053;51.080;13.712;2024-01-25T00:22:26;100783.22;;;10.05;60.09
84819;BME280;75053;51.080;13.712;2024-01-25T00:24:51;100783.69;;;10.11;60.03
84819;BME280;75053;51.080;13.712;2024-01-25T00:27:18;100787.16;;;10.12;59.96
84819;BME280;75053;51.080;13.712;2024-01-25T00:29:44;100782.88;;;10.11;59.83
84819;BME280;75053;51.080;13.712;2024-01-25T00:32:09;100786.38;;;10.10;59.77
84819;BME280;75053;51.080;13.712;2024-01-25T00:34:35;100778.66;;;10.08;59.45
84819;BME280;75053;51.080;13.712;2024-01-25T00:37:01;100782.03;;;10.10;59.54
84819;BME280;75053;51.080;13.712;2024-01-25T00:39:26;100793.91;;;10.14;59.31
84819;BME280;75053;51.080;13.712;2024-01-25T00:41:57;100800.19;;;10.26;59.11
84819;BME280;75053;51.080;13.712;2024-01-25T00:44:25;100800.91;;;10.28;59.34
84819;BME280;75053;51.080;13.712;2024-01-25T00:46:51;100801.66;;;10.16;59.47
84819;BME280;75053;51.080;13.712;2024-01-25T00:49:19;100806.69;;;10.19;59.11
84819;BME280;75053;51.080;13.712;2024-01-25T00:51:47;100803.72;;;10.11;59.20
84819;BME280;75053;51.080;13.712;2024-01-25T00:54:14;100800.53;;;10.20;59.07
84819;BME280;75053;51.080;13.712;2024-01-25T00:56:40;100806.69;;;10.19;59.37
84819;BME280;75053;51.080;13.712;2024-01-25T00:59:06;100803.81;;;10.23;58.95
84819;BME280;75053;51.080;13.712;2024-01-25T01:01:32;100825.50;;;10.24;58.85
84819;BME280;75053;51.080;13.712;2024-01-25T01:03:58;100810.03;;;10.21;58.80
84819;BME280;75053;51.080;13.712;2024-01-25T01:06:24;100808.53;;;10.31;58.74
84819;BME280;75053;51.080;13.712;2024-01-25T01:08:50;100807.25;;;10.38;58.49
84819;BME280;75053;51.080;13.712;2024-01-25T01:11:16;100818.03;;;10.32;58.34
84819;BME280;75053;51.080;13.712;2024-01-25T01:13:42;100820.09;;;10.27;58.65
84819;BME280;75053;51.080;13.712;2024-01-25T01:16:07;100822.91;;;10.24;58.43
84819;BME280;75053;51.080;13.712;2024-01-25T01:18:33;100829.50;;;10.29;58.66
84819;BME280;75053;51.080;13.712;2024-01-25T01:20:59;100831.72;;;10.21;58.73
84819;BME280;75053;51.080;13.712;2024-01-25T01:23:25;100830.88;;;10.21;58.68
84819;BME280;75053;51.080;13.712;2024-01-25T01:25:50;100834.78;;;10.28;58.40
84819;BME280;75053;51.080;13.712;2024-01-25T01:28:16;100839.28;;;10.26;58.63
84819;BME280;75053;51.080;13.712;2024-01-25T01:30:41;100833.47;;;10.21;58.62
84819;BME280;75053;51.080;13.712;2024-01-25T01:33:10;100825.13;;;10.30;58.51
84819;BME280;75053;51.080;13.712;2024-01-25T01:35:35;100828.56;;;10.16;58.61
84819;BME280;75053;51.080;13.712;2024-01-25T01:38:01;100833.47;;;10.21;58.62
84819;BME280;75053;51.080;13.712;2024-01-25T01:40:27;100830.50;;;10.27;58.54
84819;BME280;75053;51.080;13.712;2024-01-25T01:43:01;100837.59;;;10.25;58.87
84819;BME280;75053;51.080;13.712;2024-01-25T01:45:27;100826.25;;;10.26;58.63
84819;BME280;75053;51.080;13.712;2024-01-25T01:47:54;100833.84;;;10.15;58.80
84819;BME280;75053;51.080;13.712;2024-01-25T01:50:20;100839.47;;;10.23;58.76
84819;BME280;75053;51.080;13.712;2024-01-25T01:52:46;100839.63;;;10.20;58.75
84819;BME280;75053;51.080;13.712;2024-01-25T01:55:12;100839.00;;;10.16;58.48
84819;BME280;75053;51.080;13.712;2024-01-25T01:57:38;100829.19;;;10.20;58.94
84819;BME280;75053;51.080;13.712;2024-01-25T02:00:08;100834.78;;;10.14;58.79
84819;BME280;75053;51.080;13.712;2024-01-25T02:02:34;100833.78;;;10.16;58.73
84819;BME280;75053;51.080;13.712;2024-01-25T02:05:00;100826.97;;;10.14;58.77
84819;BME280;75053;51.080;13.712;2024-01-25T02:07:26;100837.94;;;10.19;58.73
84819;BME280;75053;51.080;13.712;2024-01-25T02:09:52;100835.00;;;10.25;58.38
84819;BME280;75053;51.080;13.712;2024-01-25T02:12:17;100838.13;;;10.16;58.52
84819;BME280;75053;51.080;13.712;2024-01-25T02:14:45;100822.56;;;10.14;58.81
84819;BME280;75053;51.080;13.712;2024-01-25T02:17:10;100836.81;;;10.09;58.95
84819;BME280;75053;51.080;13.712;2024-01-25T02:19:36;100818.41;;;10.12;58.46
84819;BME280;75053;51.080;13.712;2024-01-25T02:22:06;100829.91;;;10.08;58.32
84819;BME280;75053;51.080;13.712;2024-01-25T02:24:32;100821.56;;;10.03;58.60
84819;BME280;75053;51.080;13.712;2024-01-25T02:26:57;100822.69;;;10.13;58.76
84819;BME280;75053;51.080;13.712;2024-01-25T02:29:23;100830.50;;;10.13;58.51
84819;BME280;75053;51.080;13.712;2024-01-25T02:31:49;100838.31;;;10.13;58.65
84819;BME280;75053;51.080;13.712;2024-01-25T02:34:15;100830.13;;;10.19;58.56
84819;BME280;75053;51.080;13.712;2024-01-25T02:36:40;100831.44;;;10.12;58.52
84819;BME280;75053;51.080;13.712;2024-01-25T02:39:06;100826.78;;;10.17;58.45
84819;BME280;75053;51.080;13.712;2024-01-25T02:41:32;100835.53;;;10.16;58.28
84819;BME280;75053;51.080;13.712;2024-01-25T02:43:57;100833.13;;;10.13;58.34
84819;BME280;75053;51.080;13.712;2024-01-25T02:46:23;100846.34;;;10.24;58.43
84819;BME280;75053;51.080;13.712;2024-01-25T02:48:48;100843.06;;;10.06;58.60
84819;BME280;75053;51.080;13.712;2024-01-25T02:51:14;100844.91;;;10.04;58.81
84819;BME280;75053;51.080;13.712;2024-01-25T02:53:40;100851.13;;;10.02;58.77
84819;BME280;75053;51.080;13.712;2024-01-25T02:56:06;100853.75;;;10.02;58.88
84819;BME280;75053;51.080;13.712;2024-01-25T02:58:32;100857.00;;;10.05;58.78
84819;BME280;75053;51.080;13.712;2024-01-25T03:00:57;100870.59;;;10.10;58.59
84819;BME280;75053;51.080;13.712;2024-01-25T03:03:23;100863.97;;;10.05;58.84
84819;BME280;75053;51.080;13.712;2024-01-25T03:05:49;100886.03;;;9.98;58.88
84819;BME280;75053;51.080;13.712;2024-01-25T03:08:14;100877.19;;;10.02;59.10
84819;BME280;75053;51.080;13.712;2024-01-25T03:10:40;100880.94;;;10.12;58.85
84819;BME280;75053;51.080;13.712;2024-01-25T03:13:05;100876.00;;;10.07;58.36
84819;BME280;75053;51.080;13.712;2024-01-25T03:15:36;100901.53;;;10.01;58.85
84819;BME280;75053;51.080;13.712;2024-01-25T03:18:02;100892.97;;;9.99;58.85
84819;BME280;75053;51.080;13.712;2024-01-25T03:20:27;100876.81;;;10.08;58.66
84819;BME280;75053;51.080;13.712;2024-01-25T03:22:53;100883.13;;;10.04;58.93
84819;BME280;75053;51.080;13.712;2024-01-25T03:25:19;100882.63;;;10.13;58.28
84819;BME280;75053;51.080;13.712;2024-01-25T03:27:45;100886.03;;;10.13;58.68
84819;BME280;75053;51.080;13.712;2024-01-25T03:30:10;100878.84;;;10.03;58.11
84819;BME280;75053;51.080;13.712;2024-01-25T03:32:36;100886.91;;;9.98;58.34
84819;BME280;75053;51.080;13.712;2024-01-25T03:35:01;100889.59;;;9.97;58.44
84819;BME280;75053;51.080;13.712;2024-01-25T03:37:27;100880.94;;;9.96;58.58
84819;BME280;75053;51.080;13.712;2024-01-25T03:39:52;100898.50;;;9.93;58.34
84819;BME280;75053;51.080;13.712;2024-01-25T03:42:18;100891.25;;;9.98;58.43
84819;BME280;75053;51.080;13.712;2024-01-25T03:44:46;100886.97;;;9.97;58.26
84819;BME280;75053;51.080;13.712;2024-01-25T03:47:12;100893.31;;;9.93;58.32
84819;BME280;75053;51.080;13.712;2024-01-25T03:49:38;100897.59;;;9.94;58.43
84819;BME280;75053;51.080;13.712;2024-01-25T03:52:06;100905.41;;;9.94;58.24
84819;BME280;75053;51.080;13.712;2024-01-25T03:54:32;100902.91;;;9.77;58.49
84819;BME280;75053;51.080;13.712;2024-01-25T03:56:57;100890.47;;;9.82;58.41
84819;BME280;75053;51.080;13.712;2024-01-25T03:59:23;100896.03;;;9.76;58.79
84819;BME280;75053;51.080;13.712;2024-01-25T04:01:48;100890.47;;;9.82;58.40
84819;BME280;75053;51.080;13.712;2024-01-25T04:04:15;100881.91;;;9.80;58.46
84819;BME280;75053;51.080;13.712;2024-01-25T04:06:41;100878.19;;;9.84;58.91
84819;BME280;75053;51.080;13.712;2024-01-25T04:09:08;100890.28;;;9.85;58.43
84819;BME280;75053;51.080;13.712;2024-01-25T04:11:34;100878.38;;;9.81;58.63
84819;BME280;75053;51.080;13.712;2024-01-25T04:14:00;100880.56;;;9.73;58.91
84819;BME280;75053;51.080;13.712;2024-01-25T04:16:26;100894.38;;;9.75;59.03
84819;BME280;75053;51.080;13.712;2024-01-25T04:18:51;100887.13;;;9.80;58.78
84819;BME280;75053;51.080;13.712;2024-01-25T04:21:17;100924.75;;;9.74;58.85
84819;BME280;75053;51.080;13.712;2024-01-25T04:23:43;100878.91;;;9.72;58.83
84819;BME280;75053;51.080;13.712;2024-01-25T04:26:08;100894.88;;;9.66;59.33
84819;BME280;75053;51.080;13.712;2024-01-25T04:28:34;100899.72;;;9.72;58.88
84819;BME280;75053;51.080;13.712;2024-01-25T04:30:59;100889.31;;;9.72;58.41
84819;BME280;75053;51.080;13.712;2024-01-25T04:33:25;100907.47;;;9.73;58.65
84819;BME280;75053;51.080;13.712;2024-01-25T04:35:50;100893.19;;;9.65;58.70
84819;BME280;75053;51.080;13.712;2024-01-25T04:38:16;100894.19;;;9.62;58.94
84819;BME280;75053;51.080;13.712;2024-01-25T04:40:41;100901.25;;;9.60;59.14
84819;BME280;75053;51.080;13.712;2024-01-25T04:43:07;100912.69;;;9.58;58.53
84819;BME280;75053;51.080;13.712;2024-01-25T04:45:32;100891.34;;;9.67;58.45
84819;BME280;75053;51.080;13.712;2024-01-25T04:47:58;100905.28;;;9.66;58.59
84819;BME280;75053;51.080;13.712;2024-01-25T04:50:26;100899.72;;;9.72;58.61
84819;BME280;75053;51.080;13.712;2024-01-25T04:52:51;100900.09;;;9.66;58.10
84819;BME280;75053;51.080;13.712;2024-01-25T04:55:17;100905.28;;;9.66;58.70
84819;BME280;75053;51.080;13.712;2024-01-25T04:57:44;100910.50;;;9.66;58.94
84819;BME280;75053;51.080;13.712;2024-01-25T05:00:10;100915.69;;;9.66;58.83
84819;BME280;75053;51.080;13.712;2024-01-25T05:02:36;100913.09;;;9.66;58.77
84819;BME280;75053;51.080;13.712;2024-01-25T05:05:01;100917.19;;;9.70;58.45
84819;BME280;75053;51.080;13.712;2024-01-25T05:07:27;100921.59;;;9.69;58.37
84819;BME280;75053;51.080;13.712;2024-01-25T05:09:52;100933.50;;;9.58;58.52
84819;BME280;75053;51.080;13.712;2024-01-25T05:12:18;100918.56;;;9.61;58.08
84819;BME280;75053;51.080;13.712;2024-01-25T05:14:44;100920.91;;;9.66;58.06
84819;BME280;75053;51.080;13.712;2024-01-25T05:17:09;100920.91;;;9.66;58.25
84819;BME280;75053;51.080;13.712;2024-01-25T05:19:35;100917.19;;;9.70;58.33
84819;BME280;75053;51.080;13.712;2024-01-25T05:22:00;100933.31;;;9.61;58.42
84819;BME280;75053;51.080;13.712;2024-01-25T05:24:26;100927.19;;;9.62;58.34
84819;BME280;75053;51.080;13.712;2024-01-25T05:26:58;100934.84;;;9.65;58.24
84819;BME280;75053;51.080;13.712;2024-01-25T05:29:23;100929.78;;;9.62;57.82
84819;BME280;75053;51.080;13.712;2024-01-25T05:31:49;100939.22;;;9.64;58.02
84819;BME280;75053;51.080;13.712;2024-01-25T05:34:15;100942.91;;;9.60;57.66
84819;BME280;75053;51.080;13.712;2024-01-25T05:36:41;100947.00;;;9.64;57.88
84819;BME280;75053;51.080;13.712;2024-01-25T05:39:09;100939.88;;;9.68;57.58
84819;BME280;75053;51.080;13.712;2024-01-25T05:41:35;100946.19;;;9.64;57.83
84819;BME280;75053;51.080;13.712;2024-01-25T05:44:00;100946.94;;;9.66;57.83
84819;BME280;75053;51.080;13.712;2024-01-25T05:46:26;100954.94;;;9.63;57.62
84819;BME280;75053;51.080;13.712;2024-01-25T05:48:52;100966.50;;;9.73;57.63
84819;BME280;75053;51.080;13.712;2024-01-25T05:51:18;100966.00;;;9.66;57.56
84819;BME280;75053;51.080;13.712;2024-01-25T05:53:44;100966.25;;;9.62;57.79
84819;BME280;75053;51.080;13.712;2024-01-25T05:56:09;100981.84;;;9.62;57.88
84819;BME280;75053;51.080;13.712;2024-01-25T05:58:34;100979.53;;;9.57;58.23
84819;BME280;75053;51.080;13.712;2024-01-25T06:01:00;100992.44;;;9.59;58.22
84819;BME280;75053;51.080;13.712;2024-01-25T06:03:25;100979.09;;;9.65;58.28
84819;BME280;75053;51.080;13.712;2024-01-25T06:05:51;100999.00;;;9.66;58.29
84819;BME280;75053;51.080;13.712;2024-01-25T06:08:17;100991.44;;;9.61;58.51
84819;BME280;75053;51.080;13.712;2024-01-25T06:10:42;100984.81;;;9.56;58.37
84819;BME280;75053;51.080;13.712;2024-01-25T06:13:08;101004.72;;;9.57;58.31
84819;BME280;75053;51.080;13.712;2024-01-25T06:15:34;101018.47;;;9.59;58.56
84819;BME280;75053;51.080;13.712;2024-01-25T06:18:00;101013.63;;;9.53;58.75
84819;BME280;75053;51.080;13.712;2024-01-25T06:20:25;101015.47;;;9.51;58.96
84819;BME280;75053;51.080;13.712;2024-01-25T06:22:51;101017.28;;;9.49;59.17
84819;BME280;75053;51.080;13.712;2024-01-25T06:25:18;100995.13;;;9.42;58.91
84819;BME280;75053;51.080;13.712;2024-01-25T06:27:43;101006.53;;;9.39;58.78
84819;BME280;75053;51.080;13.712;2024-01-25T06:30:09;101012.59;;;9.40;58.91
84819;BME280;75053;51.080;13.712;2024-01-25T06:32:35;101000.34;;;9.42;58.88
84819;BME280;75053;51.080;13.712;2024-01-25T06:35:00;101012.72;;;9.37;58.77
84819;BME280;75053;51.080;13.712;2024-01-25T06:37:26;101010.91;;;9.39;58.99
84819;BME280;75053;51.080;13.712;2024-01-25T06:39:51;101031.56;;;9.42;58.44
84819;BME280;75053;51.080;13.712;2024-01-25T06:42:16;101010.00;;;9.40;58.57
84819;BME280;75053;51.080;13.712;2024-01-25T06:44:42;101017.94;;;9.37;58.98
84819;BME280;75053;51.080;13.712;2024-01-25T06:47:08;101014.00;;;9.30;59.18
84819;BME280;75053;51.080;13.712;2024-01-25T06:49:34;101005.16;;;9.32;59.43
84819;BME280;75053;51.080;13.712;2024-01-25T06:51:59;101042.63;;;9.30;59.00
84819;BME280;75053;51.080;13.712;2024-01-25T06:54:25;101028.34;;;9.37;58.94
84819;BME280;75053;51.080;13.712;2024-01-25T06:56:50;101029.38;;;9.34;58.66
84819;BME280;75053;51.080;13.712;2024-01-25T06:59:17;101049.34;;;9.34;58.18
84819;BME280;75053;51.080;13.712;2024-01-25T07:01:42;101033.56;;;9.37;58.44
84819;BME280;75053;51.080;13.712;2024-01-25T07:04:08;101069.97;;;9.37;58.21
84819;BME280;75053;51.080;13.712;2024-01-25T07:06:33;101052.69;;;9.36;58.20
84819;BME280;75053;51.080;13.712;2024-01-25T07:08:59;101050.84;;;9.38;57.85
84819;BME280;75053;51.080;13.712;2024-01-25T07:11:27;101069.84;;;9.40;58.00
84819;BME280;75053;51.080;13.712;2024-01-25T07:13:53;101080.09;;;9.43;58.03
84819;BME280;75053;51.080;13.712;2024-01-25T07:16:18;101073.78;;;9.47;57.63
84819;BME280;75053;51.080;13.712;2024-01-25T07:18:44;101074.31;;;9.53;56.74
84819;BME280;75053;51.080;13.712;2024-01-25T07:21:13;101076.38;;;9.47;57.56
84819;BME280;75053;51.080;13.712;2024-01-25T07:23:39;101068.28;;;9.53;57.39
84819;BME280;75053;51.080;13.712;2024-01-25T07:26:04;101071.19;;;9.47;57.76
84819;BME280;75053;51.080;13.712;2024-01-25T07:28:30;101076.38;;;9.47;57.96
84819;BME280;75053;51.080;13.712;2024-01-25T07:30:56;101066.19;;;9.59;57.48
84819;BME280;75053;51.080;13.712;2024-01-25T07:33:21;101079.09;;;9.61;57.24
84819;BME280;75053;51.080;13.712;2024-01-25T07:35:47;101082.13;;;9.53;57.08
84819;BME280;75053;51.080;13.712;2024-01-25T07:38:13;101097.66;;;9.55;57.41
84819;BME280;75053;51.080;13.712;2024-01-25T07:40:39;101078.41;;;9.42;57.76
84819;BME280;75053;51.080;13.712;2024-01-25T07:43:04;101093.56;;;9.51;57.74
84819;BME280;75053;51.080;13.712;2024-01-25T07:45:31;101100.09;;;9.58;57.65
84819;BME280;75053;51.080;13.712;2024-01-25T07:47:57;101087.69;;;9.63;57.82
84819;BME280;75053;51.080;13.712;2024-01-25T07:50:22;101105.00;;;9.64;57.73
84819;BME280;75053;51.080;13.712;2024-01-25T07:52:48;101093.56;;;9.51;57.65
84819;BME280;75053;51.080;13.712;2024-01-25T07:55:15;101105.47;;;9.55;57.60
84819;BME280;75053;51.080;13.712;2024-01-25T07:57:41;101096.41;;;9.62;57.46
84819;BME280;75053;51.080;13.712;2024-01-25T08:00:07;101103.06;;;9.83;57.08
84819;BME280;75053;51.080;13.712;2024-01-25T08:05:08;101093.41;;;9.85;57.02
84819;BME280;75053;51.080;13.712;2024-01-25T08:07:33;101095.44;;;9.80;56.98
84819;BME280;75053;51.080;13.712;2024-01-25T08:09:59;101100.41;;;9.84;56.71
84819;BME280;75053;51.080;13.712;2024-01-25T08:12:25;101098.63;;;9.85;56.42
84819;BME280;75053;51.080;13.712;2024-01-25T08:14:51;101117.28;;;9.93;56.80
84819;BME280;75053;51.080;13.712;2024-01-25T08:17:16;101115.09;;;9.85;56.74
84819;BME280;75053;51.080;13.712;2024-01-25T08:19:42;101108.00;;;9.72;57.35
84819;BME280;75053;51.080;13.712;2024-01-25T08:22:07;101127.00;;;9.74;57.24
84819;BME280;75053;51.080;13.712;2024-01-25T08:24:34;101116.56;;;9.74;57.41
84819;BME280;75053;51.080;13.712;2024-01-25T08:26:59;101124.31;;;9.75;57.55
84819;BME280;75053;51.080;13.712;2024-01-25T08:29:25;101126.41;;;9.69;57.76
84819;BME280;75053;51.080;13.712;2024-01-25T08:31:54;101121.66;;;9.77;57.80
84819;BME280;75053;51.080;13.712;2024-01-25T08:34:19;101132.88;;;9.77;58.10
84819;BME280;75053;51.080;13.712;2024-01-25T08:36:48;101137.69;;;9.85;57.56
84819;BME280;75053;51.080;13.712;2024-01-25T08:39:17;101132.09;;;9.92;57.61
84819;BME280;75053;51.080;13.712;2024-01-25T08:41:42;101133.84;;;9.92;57.95
84819;BME280;75053;51.080;13.712;2024-01-25T08:44:10;101140.28;;;9.85;58.04
84819;BME280;75053;51.080;13.712;2024-01-25T08:46:36;101139.25;;;9.72;58.71
84819;BME280;75053;51.080;13.712;2024-01-25T08:49:01;101153.66;;;9.79;58.50
84819;BME280;75053;51.080;13.712;2024-01-25T08:51:27;101145.63;;;9.66;58.92
84819;BME280;75053;51.080;13.712;2024-01-25T08:53:52;101146.75;;;9.78;58.86
84819;BME280;75053;51.080;13.712;2024-01-25T08:56:18;101154.22;;;9.84;58.48
84819;BME280;75053;51.080;13.712;2024-01-25T08:58:43;101157.75;;;9.83;58.43
84819;BME280;75053;51.080;13.712;2024-01-25T09:01:09;101148.91;;;10.02;58.22
84819;BME280;75053;51.080;13.712;2024-01-25T09:03:35;101159.81;;;9.93;58.33
84819;BME280;75053;51.080;13.712;2024-01-25T09:06:00;101153.31;;;9.85;58.25
84819;BME280;75053;51.080;13.712;2024-01-25T09:08:31;101149.13;;;9.98;58.17
84819;BME280;75053;51.080;13.712;2024-01-25T09:11:02;101156.19;;;9.96;58.47
84819;BME280;75053;51.080;13.712;2024-01-25T09:13:27;101172.44;;;10.01;57.84
84819;BME280;75053;51.080;13.712;2024-01-25T09:15:53;101157.13;;;9.95;58.13
84819;BME280;75053;51.080;13.712;2024-01-25T09:18:21;101149.94;;;10.15;58.10
84819;BME280;75053;51.080;13.712;2024-01-25T09:20:47;101147.88;;;10.22;57.97
84819;BME280;75053;51.080;13.712;2024-01-25T09:23:16;101152.41;;;10.18;57.66
84819;BME280;75053;51.080;13.712;2024-01-25T09:25:42;101150.47;;;10.22;57.74
84819;BME280;75053;51.080;13.712;2024-01-25T09:28:08;101142.19;;;10.45;57.16
84819;BME280;75053;51.080;13.712;2024-01-25T09:30:34;101150.47;;;10.22;57.68
84819;BME280;75053;51.080;13.712;2024-01-25T09:32:59;101152.31;;;10.35;57.68
84819;BME280;75053;51.080;13.712;2024-01-25T09:35:25;101170.56;;;10.51;57.00
84819;BME280;75053;51.080;13.712;2024-01-25T09:37:50;101171.13;;;10.56;56.67
84819;BME280;75053;51.080;13.712;2024-01-25T09:40:19;101172.47;;;10.32;57.64
84819;BME280;75053;51.080;13.712;2024-01-25T09:42:47;101177.19;;;10.41;57.33
84819;BME280;75053;51.080;13.712;2024-01-25T09:45:17;101176.44;;;10.54;57.22
84819;BME280;75053;51.080;13.712;2024-01-25T09:47:46;101179.63;;;10.75;56.83
84819;BME280;75053;51.080;13.712;2024-01-25T09:50:20;101191.41;;;10.51;57.20
84819;BME280;75053;51.080;13.712;2024-01-25T09:52:50;101202.00;;;10.48;57.43
84819;BME280;75053;51.080;13.712;2024-01-25T09:55:22;101196.88;;;10.62;57.20
84819;BME280;75053;51.080;13.712;2024-01-25T09:57:54;101207.13;;;10.65;57.09
84819;BME280;75053;51.080;13.712;2024-01-25T10:00:22;101200.06;;;10.51;57.15
84819;BME280;75053;51.080;13.712;2024-01-25T10:02:48;101215.38;;;10.73;56.78
84819;BME280;75053;51.080;13.712;2024-01-25T10:05:17;101218.41;;;10.65;56.33
84819;BME280;75053;51.080;13.712;2024-01-25T10:07:45;101228.66;;;10.53;56.88
84819;BME280;75053;51.080;13.712;2024-01-25T10:10:12;101226.97;;;10.52;57.12
84819;BME280;75053;51.080;13.712;2024-01-25T10:12:40;101234.28;;;10.30;57.33
84819;BME280;75053;51.080;13.712;2024-01-25T10:15:07;101232.28;;;10.35;57.25
84819;BME280;75053;51.080;13.712;2024-01-25T10:17:33;101232.53;;;10.30;56.96
84819;BME280;75053;51.080;13.712;2024-01-25T10:19:58;101245.34;;;10.18;56.88
84819;BME280;75053;51.080;13.712;2024-01-25T10:22:24;101245.63;;;10.29;57.23
84819;BME280;75053;51.080;13.712;2024-01-25T10:24:50;101244.53;;;10.33;56.71
84819;BME280;75053;51.080;13.712;2024-01-25T10:27:16;101245.66;;;10.60;56.62
84819;BME280;75053;51.080;13.712;2024-01-25T10:29:42;101247.94;;;10.66;56.24
84819;BME280;75053;51.080;13.712;2024-01-25T10:32:12;101235.75;;;10.66;56.45
84819;BME280;75053;51.080;13.712;2024-01-25T10:34:39;101241.47;;;10.73;56.13
84819;BME280;75053;51.080;13.712;2024-01-25T10:37:06;101239.19;;;10.67;57.02
84819;BME280;75053;51.080;13.712;2024-01-25T10:39:33;101237.91;;;10.43;56.93
84819;BME280;75053;51.080;13.712;2024-01-25T10:42:00;101228.31;;;10.28;57.12
84819;BME280;75053;51.080;13.712;2024-01-25T10:44:26;101218.22;;;10.22;57.17
84819;BME280;75053;51.080;13.712;2024-01-25T10:46:52;101202.72;;;10.19;57.01
84819;BME280;75053;51.080;13.712;2024-01-25T10:49:20;101225.91;;;10.40;56.71
84819;BME280;75053;51.080;13.712;2024-01-25T10:51:45;101209.22;;;10.43;56.68
84819;BME280;75053;51.080;13.712;2024-01-25T10:54:12;101225.78;;;10.42;56.55
84819;BME280;75053;51.080;13.712;2024-01-25T10:56:43;101214.06;;;10.18;57.21
84819;BME280;75053;51.080;13.712;2024-01-25T10:59:10;101233.53;;;10.28;56.77
84819;BME280;75053;51.080;13.712;2024-01-25T11:01:36;101228.97;;;10.16;57.04
84819;BME280;75053;51.080;13.712;2024-01-25T11:04:11;101236.03;;;10.14;57.48
84819;BME280;75053;51.080;13.712;2024-01-25T11:06:37;101236.56;;;10.36;57.14
84819;BME280;75053;51.080;13.712;2024-01-25T11:09:05;101223.47;;;10.68;56.22
84819;BME280;75053;51.080;13.712;2024-01-25T11:11:31;101228.84;;;10.50;56.50
84819;BME280;75053;51.080;13.712;2024-01-25T11:13:58;101219.09;;;10.53;57.03
84819;BME280;75053;51.080;13.712;2024-01-25T11:16:32;101223.63;;;10.50;56.92
84819;BME280;75053;51.080;13.712;2024-01-25T11:19:01;101218.16;;;10.70;56.81
84819;BME280;75053;51.080;13.712;2024-01-25T11:21:48;101222.13;;;10.46;56.96
84819;BME280;75053;51.080;13.712;2024-01-25T11:24:24;101218.56;;;10.62;56.73
84819;BME280;75053;51.080;13.712;2024-01-25T11:26:53;101218.81;;;10.89;56.20
84819;BME280;75053;51.080;13.712;2024-01-25T11:29:20;101208.59;;;11.00;55.79
84819;BME280;75053;51.080;13.712;2024-01-25T11:31:49;101219.50;;;10.77;56.26
84819;BME280;75053;51.080;13.712;2024-01-25T11:34:15;101215.94;;;10.78;56.40
84819;BME280;75053;51.080;13.712;2024-01-25T11:36:42;101209.66;;;10.66;56.45
84819;BME280;75053;51.080;13.712;2024-01-25T11:39:11;101217.44;;;10.97;55.90
84819;BME280;75053;51.080;13.712;2024-01-25T11:41:37;101216.31;;;11.17;55.50
84819;BME280;75053;51.080;13.712;2024-01-25T11:44:03;101221.81;;;11.41;55.25
84819;BME280;75053;51.080;13.712;2024-01-25T11:46:30;101219.81;;;11.60;54.71
84819;BME280;75053;51.080;13.712;2024-01-25T11:48:57;101239.78;;;11.61;53.92
84819;BME280;75053;51.080;13.712;2024-01-25T11:51:23;101219.94;;;11.43;53.90
84819;BME280;75053;51.080;13.712;2024-01-25T11:53:48;101213.97;;;11.71;52.01
84819;BME280;75053;51.080;13.712;2024-01-25T11:56:17;101225.00;;;11.90;51.49
84819;BME280;75053;51.080;13.712;2024-01-25T11:58:45;101234.03;;;11.70;51.81
84819;BME280;75053;51.080;13.712;2024-01-25T12:01:12;101218.38;;;11.98;51.76
84819;BME280;75053;51.080;13.712;2024-01-25T12:04:11;101225.19;;;11.87;51.42
84819;BME280;75053;51.080;13.712;2024-01-25T12:06:37;101211.59;;;11.52;52.08
84819;BME280;75053;51.080;13.712;2024-01-25T12:09:09;101209.50;;;11.59;52.09
84819;BME280;75053;51.080;13.712;2024-01-25T12:11:40;101230.66;;;11.10;53.08
84819;BME280;75053;51.080;13.712;2024-01-25T12:14:10;101223.59;;;10.81;53.90
84819;BME280;75053;51.080;13.712;2024-01-25T12:16:35;101218.91;;;10.87;54.17
84819;BME280;75053;51.080;13.712;2024-01-25T12:19:01;101225.13;;;11.00;54.39
84819;BME280;75053;51.080;13.712;2024-01-25T12:21:28;101225.97;;;10.85;54.86
84819;BME280;75053;51.080;13.712;2024-01-25T12:23:54;101214.09;;;11.24;54.62
84819;BME280;75053;51.080;13.712;2024-01-25T12:26:25;101211.72;;;11.35;54.26
84819;BME280;75053;51.080;13.712;2024-01-25T12:28:51;101211.25;;;11.72;53.84
84819;BME280;75053;51.080;13.712;2024-01-25T12:31:16;101210.91;;;11.78;53.64
84819;BME280;75053;51.080;13.712;2024-01-25T12:33:43;101209.78;;;11.68;53.94
84819;BME280;75053;51.080;13.712;2024-01-25T12:36:09;101219.34;;;11.38;54.42
84819;BME280;75053;51.080;13.712;2024-01-25T12:38:35;101201.97;;;11.23;55.07
84819;BME280;75053;51.080;13.712;2024-01-25T12:41:00;101202.66;;;11.27;55.25
84819;BME280;75053;51.080;13.712;2024-01-25T12:43:28;101203.31;;;11.30;55.59